Portada
METAR-TAF:

METAR-TAF

Aeroports :

Nan, Tailàndia

latitud: 18-46N, longitud: 100-46E, altitud: 200 m

Observació

L'informe es va fer fa 1 hora i 25 minuts, a les 14:00 UTC
Vent calma
Temperatura 22°C
Humitat 94%
Pressió 1014 hPa
Visibilitat 10 km o més
sense núvols per sota de 1500 mi sense presència de cumulonimbus.

METAR: VTCN 191400Z 00000KT CAVOK 22/21 Q1014 NOSIG

Hora: 22:25 (15:25 UTC)

Pronòstic

L'informe es va fer fa 4 hores i 25 minuts, a les 11:00 UTC
Pronòstic vàlid del 19 a les 12 UTC al 20 a les 12 UTC
Vent 5 kt del Est
Visibilitat 10 km o més
Escasses núvols a una alçada de 3000 ft

TAF: VTCN 191100Z 1912/2012 09005KT 9999 FEW030

Observacions i pronòstics meteorològics de més de 4000 aeroports (METAR i TAF).

Les estacions disponibles són els punts grocs i vermells al mapa.

Posi el ratolí al punt desitjat per veure el nom de l'estació.

Feu clic per veure les observacions i els pronòstics meteorològics.

Per canviar el mapa: feu clic els botons verds amb una creu de color negre per apropar; al botó verd amb un guió per allunyar la imatge; o en les fletxes verdes per a mapes adjacents.


METAR-TAF: